Ship Status Report: callsign WDJ3639

sailwx.info

Track history (hours):
 
Tides and Currents Weather Stations Pressure Air Temp Water Temp Dewpoint Dewpoint Depression Visibility Wind Speed Wind Dir Waves Ship Positions

Oceanographic research ship ()

Owner: Ocean Titan Holding, LLC, Seattle, WA. More information available from US FCC via Universal Licensing System and Coast Guard Vessel Documentation Center.

Last reported at 2018-Jun-17 23:58 UTC. Time now 2018-Jun-18 00:23 UTC.
Position N 46°11' W 123°52'.

Length 60 m; draft 4.6 m.

Type: Ship. MMSI: 369228000.

Date/timePositionNaut miles runAvg speedWind from/ knotsBaromVisibWave heightAir tempDewpointWater temp
2018-Jun-17 23:58N 46°11' W 123°52'0 0.0
2018-Jun-17 23:28N 46°11' W 123°52'0 0.0
2018-Jun-17 22:40N 46°11' W 123°52'0 0.0
2018-Jun-17 22:28N 46°11' W 123°52'0 0.0
2018-Jun-17 21:58N 46°11' W 123°52'0 0.0
2018-Jun-17 20:16N 46°11' W 123°52'0 0.0
2018-Jun-17 19:58N 46°11' W 123°52'0 0.0
2018-Jun-17 19:28N 46°11' W 123°52'0 0.0
2018-Jun-17 18:58N 46°11' W 123°52'0 0.0
2018-Jun-17 18:28N 46°11' W 123°52'0 0.0
2018-Jun-17 17:58N 46°11' W 123°52'0 0.0
2018-Jun-17 17:28N 46°11' W 123°52'0 0.0
2018-Jun-17 17:01N 46°11' W 123°52'2 4.6
2018-Jun-17 16:31N 46°11' W 123°55'3 5.8
2018-Jun-17 15:56N 46°14' W 123°58'2 4.3
2018-Jun-17 15:30N 46°15' W 124°00'2 5.0
2018-Jun-17 15:01N 46°15' W 124°04'3 5.2
2018-Jun-17 14:30N 46°14' W 124°07'5 9.2
2018-Jun-17 14:00N 46°10' W 124°11'1 2.3
2018-Jun-17 13:30N 46°10' W 124°13'2 3.7
2018-Jun-17 13:00N 46°09' W 124°15'3 5.7
2018-Jun-17 12:31N 46°09' W 124°19'3 6.3
2018-Jun-17 12:00N 46°08' W 124°24'3 6.0
2018-Jun-17 11:30N 46°07' W 124°28'3 5.9
2018-Jun-17 11:00N 46°05' W 124°32'3 5.9
2018-Jun-17 10:30N 46°04' W 124°36'4 5.1
2018-Jun-17 09:44N 46°03' W 124°41'1 5.2
2018-Jun-17 09:30N 46°03' W 124°43'3 5.9
2018-Jun-17 09:00N 46°03' W 124°47'3 5.4
2018-Jun-17 08:31N 46°02' W 124°51'3 5.5
2018-Jun-17 07:59N 46°02' W 124°55'3 5.4
2018-Jun-17 07:31N 46°02' W 124°59'3 5.7
2018-Jun-17 06:59N 46°02' W 125°03'3 5.4
2018-Jun-17 06:31N 46°02' W 125°07'3 5.4
2018-Jun-17 06:01N 46°01' W 125°10'3 5.5
2018-Jun-17 05:30N 46°01' W 125°15'3 5.4
2018-Jun-17 05:00N 46°02' W 125°18'3 5.2
2018-Jun-17 04:31N 46°02' W 125°22'3 5.5
2018-Jun-17 03:59N 46°02' W 125°26'3 5.7
2018-Jun-17 03:30N 46°01' W 125°30'3 5.9
2018-Jun-17 03:01N 46°01' W 125°34'1 2.5
2018-Jun-17 02:30N 46°01' W 125°36'2 3.1
2018-Jun-17 02:00N 46°01' W 125°34'2 3.9
2018-Jun-17 01:26N 46°01' W 125°31'2 3.8
2018-Jun-17 00:55N 46°01' W 125°28'2 3.8
2018-Jun-17 00:28N 46°01' W 125°25'1 1.2
2018-Jun-17 00:00N 46°01' W 125°25'0 0.8
2018-Jun-16 23:30N 46°01' W 125°25'0 0.5
2018-Jun-16 23:00N 46°01' W 125°25'0 0.6
2018-Jun-16 22:31N 46°01' W 125°25'2 4.1
2018-Jun-16 22:01N 45°59' W 125°24'2 4.5
2018-Jun-16 21:30N 45°57' W 125°21'2 4.2
2018-Jun-16 20:57N 45°56' W 125°20'2 3.5
2018-Jun-16 20:31N 45°54' W 125°20'0 0.3
2018-Jun-16 20:00N 45°54' W 125°20'0 0.6
2018-Jun-16 19:26N 45°54' W 125°21'0 0.0
2018-Jun-16 18:56N 45°54' W 125°21'0 0.0
2018-Jun-16 18:30N 45°54' W 125°21'0 0.0
2018-Jun-16 18:00N 45°54' W 125°21'0 0.0
2018-Jun-16 17:29N 45°54' W 125°21'0 0.0
2018-Jun-16 17:00N 45°54' W 125°21'0 0.0
2018-Jun-16 16:28N 45°54' W 125°21'0 0.0
2018-Jun-16 15:59N 45°54' W 125°21'0 0.0
2018-Jun-16 15:25N 45°54' W 125°21'0 0.0
2018-Jun-16 14:59N 45°54' W 125°21'0 0.0
2018-Jun-16 14:30N 45°54' W 125°21'0 0.0
2018-Jun-16 13:58N 45°54' W 125°21'0 0.0
2018-Jun-16 12:38N 45°54' W 125°21'0 0.0
2018-Jun-16 12:30N 45°54' W 125°21'0 0.0
2018-Jun-16 11:59N 45°54' W 125°21'0 0.0
2018-Jun-16 11:28N 45°54' W 125°21'0 0.0
2018-Jun-16 10:51N 45°54' W 125°21'0 0.0
2018-Jun-16 10:28N 45°54' W 125°21'0 0.1
2018-Jun-16 09:58N 45°54' W 125°21'8 5.6
2018-Jun-16 08:30N 46°02' W 125°23'4 6.8
2018-Jun-16 07:59N 45°59' W 125°23'4 8.8
2018-Jun-16 07:29N 45°55' W 125°21'1 1.0
2018-Jun-16 06:59N 45°54' W 125°21'0 0.2
2018-Jun-16 06:30N 45°54' W 125°21'0 0.5
2018-Jun-16 06:00N 45°54' W 125°21'0 0.7
2018-Jun-16 05:29N 45°55' W 125°20'0 0.9
2018-Jun-16 05:00N 45°55' W 125°20'0 0.3
2018-Jun-16 04:28N 45°55' W 125°20'0 0.4
2018-Jun-16 03:51N 45°55' W 125°20'0 0.4
2018-Jun-16 03:30N 45°55' W 125°21'9 6.8
2018-Jun-16 02:10N 46°04' W 125°21'0 0.1
2018-Jun-16 01:53N 46°04' W 125°21'1 3.4
2018-Jun-16 01:29N 46°03' W 125°21'2 3.4
2018-Jun-16 01:00N 46°01' W 125°21'1 1.7
2018-Jun-16 00:28N 45°60' W 125°21'1 2.8
2018-Jun-16 00:00N 45°59' W 125°20'3 4.8
2018-Jun-15 23:23N 45°56' W 125°20'1 3.0
2018-Jun-15 23:00N 45°55' W 125°20'0 0.0
2018-Jun-15 22:29N 45°55' W 125°20'1 1.3
2018-Jun-15 22:00N 45°55' W 125°21'1 1.2
2018-Jun-15 21:10N 45°56' W 125°20'  
2018-Jun-13 00:15N 46°08' W 126°43'0 1.7
2018-Jun-13 00:00N 46°08' W 126°43'4 1.8
2018-Jun-12 21:50N 46°08' W 126°37'3 0.3
2018-Jun-12 11:12N 46°08' W 126°41'  
Track history (hours):
 
Tides and Currents Weather Stations Pressure Air Temp Water Temp Dewpoint Dewpoint Depression Visibility Wind Speed Wind Dir Waves Ship Positions

Oceanographic research ship ()

Owner: Ocean Titan Holding, LLC, Seattle, WA. More information available from US FCC via Universal Licensing System and Coast Guard Vessel Documentation Center.

Last reported at 2018-Jun-17 23:58 UTC. Time now 2018-Jun-18 00:23 UTC.
Position N 46°11' W 123°52'.

Length 60 m; draft 4.6 m.

Type: Ship. MMSI: 369228000.

Date/timePositionNaut miles runAvg speedWind from/ knotsBaromVisibWave heightAir tempDewpointWater temp
2018-Jun-17 23:58N 46°11' W 123°52'0 0.0
2018-Jun-17 23:28N 46°11' W 123°52'0 0.0
2018-Jun-17 22:40N 46°11' W 123°52'0 0.0
2018-Jun-17 22:28N 46°11' W 123°52'0 0.0
2018-Jun-17 21:58N 46°11' W 123°52'0 0.0
2018-Jun-17 20:16N 46°11' W 123°52'0 0.0
2018-Jun-17 19:58N 46°11' W 123°52'0 0.0
2018-Jun-17 19:28N 46°11' W 123°52'0 0.0
2018-Jun-17 18:58N 46°11' W 123°52'0 0.0
2018-Jun-17 18:28N 46°11' W 123°52'0 0.0
2018-Jun-17 17:58N 46°11' W 123°52'0 0.0
2018-Jun-17 17:28N 46°11' W 123°52'0 0.0
2018-Jun-17 17:01N 46°11' W 123°52'2 4.6
2018-Jun-17 16:31N 46°11' W 123°55'3 5.8
2018-Jun-17 15:56N 46°14' W 123°58'2 4.3
2018-Jun-17 15:30N 46°15' W 124°00'2 5.0
2018-Jun-17 15:01N 46°15' W 124°04'3 5.2
2018-Jun-17 14:30N 46°14' W 124°07'5 9.2
2018-Jun-17 14:00N 46°10' W 124°11'1 2.3
2018-Jun-17 13:30N 46°10' W 124°13'2 3.7
2018-Jun-17 13:00N 46°09' W 124°15'3 5.7
2018-Jun-17 12:31N 46°09' W 124°19'3 6.3
2018-Jun-17 12:00N 46°08' W 124°24'3 6.0
2018-Jun-17 11:30N 46°07' W 124°28'3 5.9
2018-Jun-17 11:00N 46°05' W 124°32'3 5.9
2018-Jun-17 10:30N 46°04' W 124°36'4 5.1
2018-Jun-17 09:44N 46°03' W 124°41'1 5.2
2018-Jun-17 09:30N 46°03' W 124°43'3 5.9
2018-Jun-17 09:00N 46°03' W 124°47'3 5.4
2018-Jun-17 08:31N 46°02' W 124°51'3 5.5
2018-Jun-17 07:59N 46°02' W 124°55'3 5.4
2018-Jun-17 07:31N 46°02' W 124°59'3 5.7
2018-Jun-17 06:59N 46°02' W 125°03'3 5.4
2018-Jun-17 06:31N 46°02' W 125°07'3 5.4
2018-Jun-17 06:01N 46°01' W 125°10'3 5.5
2018-Jun-17 05:30N 46°01' W 125°15'3 5.4
2018-Jun-17 05:00N 46°02' W 125°18'3 5.2
2018-Jun-17 04:31N 46°02' W 125°22'3 5.5
2018-Jun-17 03:59N 46°02' W 125°26'3 5.7
2018-Jun-17 03:30N 46°01' W 125°30'3 5.9
2018-Jun-17 03:01N 46°01' W 125°34'1 2.5
2018-Jun-17 02:30N 46°01' W 125°36'2 3.1
2018-Jun-17 02:00N 46°01' W 125°34'2 3.9
2018-Jun-17 01:26N 46°01' W 125°31'2 3.8
2018-Jun-17 00:55N 46°01' W 125°28'2 3.8
2018-Jun-17 00:28N 46°01' W 125°25'1 1.2
2018-Jun-17 00:00N 46°01' W 125°25'0 0.8
2018-Jun-16 23:30N 46°01' W 125°25'0 0.5
2018-Jun-16 23:00N 46°01' W 125°25'0 0.6
2018-Jun-16 22:31N 46°01' W 125°25'2 4.1
2018-Jun-16 22:01N 45°59' W 125°24'2 4.5
2018-Jun-16 21:30N 45°57' W 125°21'2 4.2
2018-Jun-16 20:57N 45°56' W 125°20'2 3.5
2018-Jun-16 20:31N 45°54' W 125°20'0 0.3
2018-Jun-16 20:00N 45°54' W 125°20'0 0.6
2018-Jun-16 19:26N 45°54' W 125°21'0 0.0
2018-Jun-16 18:56N 45°54' W 125°21'0 0.0
2018-Jun-16 18:30N 45°54' W 125°21'0 0.0
2018-Jun-16 18:00N 45°54' W 125°21'0 0.0
2018-Jun-16 17:29N 45°54' W 125°21'0 0.0
2018-Jun-16 17:00N 45°54' W 125°21'0 0.0
2018-Jun-16 16:28N 45°54' W 125°21'0 0.0
2018-Jun-16 15:59N 45°54' W 125°21'0 0.0
2018-Jun-16 15:25N 45°54' W 125°21'0 0.0
2018-Jun-16 14:59N 45°54' W 125°21'0 0.0
2018-Jun-16 14:30N 45°54' W 125°21'0 0.0
2018-Jun-16 13:58N 45°54' W 125°21'0 0.0
2018-Jun-16 12:38N 45°54' W 125°21'0 0.0
2018-Jun-16 12:30N 45°54' W 125°21'0 0.0
2018-Jun-16 11:59N 45°54' W 125°21'0 0.0
2018-Jun-16 11:28N 45°54' W 125°21'0 0.0
2018-Jun-16 10:51N 45°54' W 125°21'0 0.0
2018-Jun-16 10:28N 45°54' W 125°21'0 0.1
2018-Jun-16 09:58N 45°54' W 125°21'8 5.6
2018-Jun-16 08:30N 46°02' W 125°23'4 6.8
2018-Jun-16 07:59N 45°59' W 125°23'4 8.8
2018-Jun-16 07:29N 45°55' W 125°21'1 1.0
2018-Jun-16 06:59N 45°54' W 125°21'0 0.2
2018-Jun-16 06:30N 45°54' W 125°21'0 0.5
2018-Jun-16 06:00N 45°54' W 125°21'0 0.7
2018-Jun-16 05:29N 45°55' W 125°20'0 0.9
2018-Jun-16 05:00N 45°55' W 125°20'0 0.3
2018-Jun-16 04:28N 45°55' W 125°20'0 0.4
2018-Jun-16 03:51N 45°55' W 125°20'0 0.4
2018-Jun-16 03:30N 45°55' W 125°21'9 6.8
2018-Jun-16 02:10N 46°04' W 125°21'0 0.1
2018-Jun-16 01:53N 46°04' W 125°21'1 3.4
2018-Jun-16 01:29N 46°03' W 125°21'2 3.4
2018-Jun-16 01:00N 46°01' W 125°21'1 1.7
2018-Jun-16 00:28N 45°60' W 125°21'1 2.8
2018-Jun-16 00:00N 45°59' W 125°20'3 4.8
2018-Jun-15 23:23N 45°56' W 125°20'1 3.0
2018-Jun-15 23:00N 45°55' W 125°20'0 0.0
2018-Jun-15 22:29N 45°55' W 125°20'1 1.3
2018-Jun-15 22:00N 45°55' W 125°21'1 1.2
2018-Jun-15 21:10N 45°56' W 125°20'  
2018-Jun-13 00:15N 46°08' W 126°43'0 1.7
2018-Jun-13 00:00N 46°08' W 126°43'4 1.8
2018-Jun-12 21:50N 46°08' W 126°37'3 0.3
2018-Jun-12 11:12N 46°08' W 126°41'  

Dump ship's entire track history